createdAt,value
2018-06-23T00:00:34.850Z,65.85
2018-06-23T00:01:34.876Z,65.47
2018-06-23T00:02:34.850Z,65.85
2018-06-23T00:03:34.915Z,66.24
2018-06-23T00:04:34.887Z,66.24
2018-06-23T00:05:34.867Z,66.24
2018-06-23T00:06:34.898Z,66.05
2018-06-23T00:07:34.875Z,66.24
2018-06-23T00:08:34.866Z,66.14
2018-06-23T00:09:34.897Z,65.85
2018-06-23T00:10:34.881Z,66.53
2018-06-23T00:11:34.904Z,66.53
2018-06-23T00:12:34.886Z,66.82
2018-06-23T00:13:34.925Z,66.82
2018-06-23T00:14:34.884Z,66.59
2018-06-23T00:15:34.880Z,66.33
2018-06-23T00:16:34.884Z,66.82
2018-06-23T00:17:34.891Z,66.14
2018-06-23T00:18:34.881Z,66.05
2018-06-23T00:19:34.883Z,66.24
2018-06-23T00:20:34.888Z,66.24
2018-06-23T00:21:34.901Z,66.14
2018-06-23T00:22:34.933Z,65.85
2018-06-23T00:23:34.959Z,66.24
2018-06-23T00:24:34.945Z,66.24
2018-06-23T00:25:34.892Z,66.24
2018-06-23T00:26:34.912Z,65.56
2018-06-23T00:27:34.932Z,66.33
2018-06-23T00:28:34.925Z,66.43
2018-06-23T00:29:34.931Z,65.95
2018-06-23T00:30:34.936Z,65.95
2018-06-23T00:31:34.905Z,66.14
2018-06-23T00:32:34.909Z,66.05
2018-06-23T00:33:34.901Z,66.24
2018-06-23T00:34:34.927Z,66.14
2018-06-23T00:35:34.918Z,65.95
2018-06-23T00:36:34.896Z,66.33
2018-06-23T00:37:34.928Z,65.56
2018-06-23T00:38:34.950Z,65.47
2018-06-23T00:39:34.958Z,65.95
2018-06-23T00:40:34.918Z,66.43
2018-06-23T00:41:34.956Z,66.14
2018-06-23T00:42:34.903Z,66.05
2018-06-23T00:43:34.904Z,66.11
2018-06-23T00:44:34.942Z,66.24
2018-06-23T00:45:34.961Z,66.14
2018-06-23T00:46:34.956Z,66.2
2018-06-23T00:47:35.012Z,66.2
2018-06-23T00:48:34.926Z,66.01
2018-06-23T00:49:34.959Z,65.85
2018-06-23T00:50:34.939Z,65.37
2018-06-23T00:51:34.962Z,65.95
2018-06-23T00:52:34.969Z,66.14
2018-06-23T00:53:35.004Z,66.01
2018-06-23T00:54:34.967Z,65.82
2018-06-23T00:55:34.958Z,65.85
2018-06-23T00:56:34.949Z,66.11
2018-06-23T00:57:34.977Z,66.2
2018-06-23T00:58:34.950Z,65.72
2018-06-23T00:59:34.940Z,66.2
2018-06-23T01:00:34.997Z,66.11
2018-06-23T01:01:34.971Z,66.3
2018-06-23T01:02:35.008Z,65.91
2018-06-23T01:03:34.961Z,66.11
2018-06-23T01:04:34.967Z,66.2
2018-06-23T01:05:34.975Z,66.01
2018-06-23T01:06:34.982Z,66.11
2018-06-23T01:07:34.990Z,65.95
2018-06-23T01:08:34.995Z,66.01
2018-06-23T01:09:34.982Z,66.3
2018-06-23T01:10:34.959Z,66.2
2018-06-23T01:11:34.965Z,66.2
2018-06-23T01:12:34.995Z,66.11
2018-06-23T01:13:34.986Z,66.33
2018-06-23T01:14:34.985Z,65.91
2018-06-23T01:15:34.992Z,65.91
2018-06-23T01:16:34.996Z,65.85
2018-06-23T01:17:35.025Z,65.72
2018-06-23T01:18:35.019Z,65.47
2018-06-23T01:19:35.015Z,65.56
2018-06-23T01:20:34.972Z,65.66
2018-06-23T01:21:35.028Z,65.91
2018-06-23T01:22:35.012Z,65.47
2018-06-23T01:23:35.017Z,65.47
2018-06-23T01:24:34.984Z,65.75
2018-06-23T01:25:35.006Z,65.82
2018-06-23T01:26:35.174Z,66.14
2018-06-23T01:27:34.987Z,66.33
2018-06-23T01:28:35.002Z,66.2
2018-06-23T01:29:35.018Z,65.85
2018-06-23T01:30:35.042Z,65.95
2018-06-23T01:31:35.041Z,66.33
2018-06-23T01:32:35.021Z,66.05
2018-06-23T01:33:35.001Z,66.05
2018-06-23T01:34:35.010Z,65.75
2018-06-23T01:35:35.052Z,66.33
2018-06-23T01:36:35.001Z,66.05
2018-06-23T01:37:35.044Z,66.14
2018-06-23T01:38:35.046Z,66.24
2018-06-23T01:39:35.023Z,66.14
2018-06-23T01:40:35.022Z,65.95
2018-06-23T01:41:35.016Z,66.05
2018-06-23T01:42:35.035Z,66.05
2018-06-23T01:43:35.041Z,65.85
2018-06-23T01:44:35.033Z,66.2
2018-06-23T01:45:35.035Z,65.66
2018-06-23T01:46:35.051Z,65.47
2018-06-23T01:47:35.077Z,65.27
2018-06-23T01:48:35.039Z,65.47
2018-06-23T01:49:35.036Z,65.95
2018-06-23T01:50:35.023Z,65.47
2018-06-23T01:51:35.054Z,65.56
2018-06-23T01:52:35.036Z,66.14
2018-06-23T01:53:35.063Z,65.56
2018-06-23T01:54:35.051Z,65.66
2018-06-23T01:55:35.075Z,66.14
2018-06-23T01:56:35.076Z,65.95
2018-06-23T01:57:35.033Z,66.24
2018-06-23T01:58:35.068Z,65.85
2018-06-23T01:59:35.049Z,65.95
2018-06-23T02:00:35.079Z,66.14
2018-06-23T02:01:35.061Z,65.56
2018-06-23T02:02:35.066Z,65.85
2018-06-23T02:03:35.056Z,65.72
2018-06-23T02:04:35.051Z,66.43
2018-06-23T02:05:35.065Z,65.95
2018-06-23T02:06:35.065Z,66.05
2018-06-23T02:07:35.121Z,65.85
2018-06-23T02:08:35.051Z,65.75
2018-06-23T02:09:35.057Z,65.95
2018-06-23T02:10:35.071Z,65.91
2018-06-23T02:11:35.104Z,65.75
2018-06-23T02:12:35.105Z,65.56
2018-06-23T02:13:35.058Z,66.43
2018-06-23T02:14:35.076Z,66.14
2018-06-23T02:15:35.096Z,66.01
2018-06-23T02:16:35.851Z,65.85
2018-06-23T02:17:35.190Z,66.14
2018-06-23T02:18:35.126Z,66.14
2018-06-23T02:19:35.099Z,66.2
2018-06-23T02:20:35.139Z,66.11
2018-06-23T02:21:35.116Z,66.2
2018-06-23T02:22:35.617Z,65.95
2018-06-23T02:23:35.104Z,65.82
2018-06-23T02:24:35.129Z,65.95
2018-06-23T02:25:35.143Z,65.72
2018-06-23T02:26:35.122Z,66.4
2018-06-23T02:27:35.158Z,65.91
2018-06-23T02:28:35.162Z,66.2
2018-06-23T02:29:35.104Z,66.01
2018-06-23T02:30:35.107Z,66.2
2018-06-23T02:31:35.132Z,66.01
2018-06-23T02:32:35.181Z,66.33
2018-06-23T02:37:04.708Z,66.3
2018-06-23T02:38:04.663Z,65.62
2018-06-23T02:39:04.650Z,65.82
2018-06-23T02:40:04.656Z,65.82
2018-06-23T02:41:04.680Z,65.91
2018-06-23T02:42:04.711Z,66.11
2018-06-23T02:43:04.726Z,66.3
2018-06-23T02:44:04.708Z,66.01
2018-06-23T02:45:04.688Z,66.01
2018-06-23T02:46:04.738Z,66.2
2018-06-23T02:47:04.725Z,66.01
2018-06-23T02:48:04.712Z,66.3
2018-06-23T02:49:04.689Z,66.11
2018-06-23T02:50:04.705Z,66.01
2018-06-23T02:51:04.702Z,66.2
2018-06-23T02:52:04.755Z,66.72
2018-06-23T02:53:04.706Z,66.78
2018-06-23T02:54:04.708Z,66.78
2018-06-23T02:55:04.721Z,66.11
2018-06-23T02:56:04.685Z,66.53
2018-06-23T02:57:04.712Z,66.3
2018-06-23T02:58:04.774Z,66.01
2018-06-23T02:59:04.704Z,66.53
2018-06-23T03:00:04.741Z,66.78
2018-06-23T03:01:04.703Z,66.11
2018-06-23T03:02:04.713Z,66.49
2018-06-23T03:03:04.721Z,66.69
2018-06-23T03:04:04.752Z,66.2
2018-06-23T03:05:04.731Z,66.14
2018-06-23T03:06:04.726Z,66.11
2018-06-23T03:07:06.905Z,66.49
2018-06-23T03:08:04.723Z,66.78
2018-06-23T03:09:04.758Z,67.01
2018-06-23T03:10:04.748Z,66.78
2018-06-23T03:11:04.722Z,66.88
2018-06-23T03:12:04.837Z,66.88
2018-06-23T03:13:04.764Z,66.69
2018-06-23T03:14:04.824Z,66.3
2018-06-23T03:15:04.723Z,66.05
2018-06-23T03:16:04.751Z,66.2
2018-06-23T03:17:04.711Z,66.82
2018-06-23T03:18:04.762Z,66.72
2018-06-23T03:19:04.735Z,67.11
2018-06-23T03:20:04.769Z,66.97
2018-06-23T03:21:04.716Z,67.3
2018-06-23T03:22:04.742Z,66.91
2018-06-23T03:26:32.923Z,66.78
2018-06-23T03:27:32.877Z,66.53
2018-06-23T03:28:32.847Z,66.63
2018-06-23T03:29:32.855Z,66.53
2018-06-23T03:30:32.851Z,66.63
2018-06-23T03:31:32.860Z,66.43
2018-06-23T03:32:32.861Z,66.63
2018-06-23T03:33:32.867Z,66.53
2018-06-23T03:34:32.877Z,66.82
2018-06-23T03:35:32.861Z,66.43
2018-06-23T03:36:32.866Z,66.43
2018-06-23T03:37:32.868Z,66.59
2018-06-23T03:38:32.883Z,66.49
2018-06-23T03:39:32.885Z,66.72
2018-06-23T03:40:32.873Z,66.59
2018-06-23T03:41:32.976Z,66.59
2018-06-23T03:46:01.247Z,66.53
2018-06-23T03:47:01.225Z,66.59
2018-06-23T03:48:01.197Z,66.91
2018-06-23T03:49:01.206Z,66.82
2018-06-23T03:50:01.216Z,66.72
2018-06-23T03:54:29.708Z,66.63
2018-06-23T03:55:29.713Z,66.63
2018-06-23T03:56:29.701Z,66.91
2018-06-23T03:57:29.729Z,67.17
2018-06-23T03:58:29.704Z,66.63
2018-06-23T03:59:29.733Z,66.91
2018-06-23T04:00:29.674Z,66.72
2018-06-23T04:01:29.707Z,67.17
2018-06-23T04:02:29.680Z,66.91
2018-06-23T04:03:29.683Z,66.72
2018-06-23T04:04:29.703Z,66.91
2018-06-23T04:05:29.700Z,66.91
2018-06-23T04:06:29.709Z,66.63
2018-06-23T04:07:29.766Z,66.72
2018-06-23T04:08:29.716Z,66.53
2018-06-23T04:09:29.690Z,66.72
2018-06-23T04:10:29.731Z,66.43
2018-06-23T04:11:29.787Z,66.72
2018-06-23T04:12:29.714Z,66.63
2018-06-23T04:13:29.697Z,66.53
2018-06-23T04:14:29.705Z,66.91
2018-06-23T04:15:29.715Z,67.11
2018-06-23T04:16:29.724Z,67.01
2018-06-23T04:17:29.714Z,67.11
2018-06-23T04:18:29.781Z,67.01
2018-06-23T04:19:29.746Z,67.01
2018-06-23T04:20:29.703Z,66.53
2018-06-23T04:21:29.714Z,66.82
2018-06-23T04:22:29.762Z,66.72
2018-06-23T04:23:29.768Z,66.53
2018-06-23T04:24:29.760Z,66.63
2018-06-23T04:25:29.717Z,66.91
2018-06-23T04:26:29.740Z,66.63
2018-06-23T04:27:29.723Z,66.82
2018-06-23T04:28:29.728Z,66.63
2018-06-23T04:29:29.732Z,66.72
2018-06-23T04:30:29.770Z,66.97
2018-06-23T04:31:29.744Z,67.11
2018-06-23T04:32:29.737Z,67.01
2018-06-23T04:33:29.749Z,67.01
2018-06-23T04:34:29.757Z,67.2
2018-06-23T04:35:29.747Z,66.97
2018-06-23T04:36:29.727Z,66.63
2018-06-23T04:37:29.778Z,66.78
2018-06-23T04:38:29.756Z,66.88
2018-06-23T04:39:29.740Z,66.88
2018-06-23T04:40:29.769Z,66.97
2018-06-23T04:41:29.728Z,67.27
2018-06-23T04:42:29.762Z,66.59
2018-06-23T04:43:29.898Z,67.07
2018-06-23T04:44:29.779Z,66.69
2018-06-23T04:45:29.739Z,66.88
2018-06-23T04:46:29.735Z,66.59
2018-06-23T04:47:29.793Z,66.49
2018-06-23T04:48:29.784Z,66.78
2018-06-23T04:49:29.780Z,66.88
2018-06-23T04:50:29.771Z,66.78
2018-06-23T04:51:29.801Z,66.69
2018-06-23T04:52:29.776Z,66.78
2018-06-23T04:53:29.809Z,66.91
2018-06-23T04:54:29.761Z,66.59
2018-06-23T04:55:29.792Z,66.59
2018-06-23T04:56:29.751Z,66.49
2018-06-23T04:57:29.761Z,66.69
2018-06-23T04:58:29.796Z,66.88
2018-06-23T04:59:29.800Z,66.69
2018-06-23T05:00:29.842Z,66.69
2018-06-23T05:02:52.976Z,66.69
2018-06-23T05:03:47.082Z,66.59
2018-06-23T05:04:47.124Z,66.59
2018-06-23T05:05:47.107Z,66.59
2018-06-23T05:06:47.077Z,66.69
2018-06-23T05:07:47.099Z,66.69
2018-06-23T05:08:47.069Z,66.88
2018-06-23T05:09:47.073Z,66.97
2018-06-23T05:10:47.070Z,66.49
2018-06-23T05:11:47.210Z,66.4
2018-06-23T05:12:47.193Z,66.4
2018-06-23T05:13:47.220Z,66.3
2018-06-23T05:14:47.226Z,66.3
2018-06-23T05:15:47.214Z,65.72
2018-06-23T05:16:47.232Z,65.91
2018-06-23T05:17:47.206Z,66.11
2018-06-23T05:18:47.229Z,66.59
2018-06-23T05:19:47.236Z,66.01
2018-06-23T05:20:47.215Z,66.11
2018-06-23T05:21:47.222Z,66.01
2018-06-23T05:22:47.229Z,66.01
2018-06-23T05:23:47.220Z,66.2
2018-06-23T05:24:47.218Z,66.2
2018-06-23T05:25:47.222Z,66.11
2018-06-23T05:26:47.259Z,65.91
2018-06-23T05:27:47.235Z,66.11
2018-06-23T05:28:47.270Z,66.01
2018-06-23T05:29:47.272Z,66.2
2018-06-23T05:30:47.259Z,66.01
2018-06-23T05:31:47.289Z,66.01
2018-06-23T05:32:47.248Z,66.11
2018-06-23T05:33:47.282Z,66.3
2018-06-23T05:34:47.258Z,65.82
2018-06-23T05:35:47.265Z,66.11
2018-06-23T05:36:47.259Z,66.01
2018-06-23T05:37:47.334Z,66.3
2018-06-23T05:38:47.261Z,66.01
2018-06-23T05:39:47.266Z,65.91
2018-06-23T05:40:47.229Z,66.2
2018-06-23T05:41:47.273Z,66.11
2018-06-23T05:42:47.251Z,66.01
2018-06-23T05:43:47.291Z,66.2
2018-06-23T05:44:47.316Z,66.2
2018-06-23T05:45:47.270Z,65.91
2018-06-23T05:46:47.277Z,66.2
2018-06-23T05:47:47.288Z,66.01
2018-06-23T05:48:47.264Z,66.11
2018-06-23T05:49:47.299Z,66.3
2018-06-23T05:50:47.305Z,66.2
2018-06-23T05:51:47.267Z,65.82
2018-06-23T05:52:47.295Z,66.01
2018-06-23T05:53:47.324Z,66.3
2018-06-23T05:54:47.384Z,66.4
2018-06-23T05:55:47.340Z,66.11
2018-06-23T05:56:47.315Z,66.59
2018-06-23T05:57:47.324Z,66.01
2018-06-23T05:58:47.315Z,65.82
2018-06-23T05:59:47.288Z,66.11
2018-06-23T06:00:47.341Z,66.11
2018-06-23T06:01:47.295Z,66.11
2018-06-23T06:02:51.042Z,66.11
2018-06-23T06:03:47.343Z,66.2
2018-06-23T06:04:47.270Z,66.49
2018-06-23T06:05:47.300Z,65.91
2018-06-23T06:06:47.308Z,66.3
2018-06-23T06:07:47.296Z,66.59
2018-06-23T06:08:47.317Z,66.49
2018-06-23T06:09:47.276Z,66.78
2018-06-23T06:10:47.320Z,66.49
2018-06-23T06:11:47.398Z,66.2
2018-06-23T06:12:47.296Z,65.82
2018-06-23T06:13:47.331Z,65.82
2018-06-23T06:14:47.331Z,66.49
2018-06-23T06:15:47.342Z,66.49
2018-06-23T06:16:47.347Z,66.78
2018-06-23T06:17:47.309Z,66.59
2018-06-23T06:18:47.338Z,66.4
2018-06-23T06:19:47.316Z,66.69
2018-06-23T06:20:47.323Z,66.59
2018-06-23T06:21:47.326Z,66.69
2018-06-23T06:22:47.343Z,66.4
2018-06-23T06:23:47.390Z,66.88
2018-06-23T06:24:47.295Z,66.78
2018-06-23T06:25:47.335Z,66.4
2018-06-23T06:26:47.309Z,66.91
2018-06-23T06:27:47.979Z,66.49
2018-06-23T06:28:47.322Z,66.49
2018-06-23T06:29:47.328Z,64.95
2018-06-23T06:30:47.322Z,64.56
2018-06-23T06:31:47.347Z,64.37
2018-06-23T06:32:47.331Z,66.11
2018-06-23T06:33:57.375Z,65.82
2018-06-23T06:34:47.338Z,66.01
2018-06-23T06:35:47.423Z,66.11
2018-06-23T06:36:47.376Z,66.11
2018-06-23T06:37:47.352Z,66.01
2018-06-23T06:38:47.369Z,65.91
2018-06-23T06:39:47.428Z,66.2
2018-06-23T06:40:47.375Z,65.91
2018-06-23T06:41:47.389Z,65.53
2018-06-23T06:42:47.397Z,65.53
2018-06-23T06:43:47.451Z,64.95
2018-06-23T06:44:47.372Z,65.05
2018-06-23T06:45:47.338Z,65.53
2018-06-23T06:46:47.343Z,65.53
2018-06-23T06:47:47.376Z,65.14
2018-06-23T06:48:47.349Z,64.95
2018-06-23T06:49:47.384Z,65.05
2018-06-23T06:50:47.419Z,64.86
2018-06-23T06:51:47.369Z,64.08
2018-06-23T06:52:47.500Z,63.31
2018-06-23T06:53:47.383Z,64.34
2018-06-23T06:54:47.434Z,64.56
2018-06-23T06:55:47.369Z,64.37
2018-06-23T06:56:47.417Z,64.28
2018-06-23T06:57:47.386Z,65.14
2018-06-23T06:58:47.388Z,64.86
2018-06-23T06:59:47.397Z,64.86
2018-06-23T07:00:47.455Z,65.05
2018-06-23T07:01:47.409Z,64.86
2018-06-23T07:02:47.443Z,65.34
2018-06-23T07:03:47.400Z,65.24
2018-06-23T07:04:47.438Z,64.95
2018-06-23T07:05:47.414Z,65.14
2018-06-23T07:06:47.433Z,65.91
2018-06-23T07:07:47.419Z,66.11
2018-06-23T07:08:47.536Z,66.69
2018-06-23T07:09:47.414Z,66.05
2018-06-23T07:10:47.445Z,66.11
2018-06-23T07:11:47.401Z,66.01
2018-06-23T07:12:47.383Z,65.53
2018-06-23T07:13:47.408Z,64.76
2018-06-23T07:14:47.428Z,64.66
2018-06-23T07:15:47.448Z,64.47
2018-06-23T07:16:47.410Z,65.05
2018-06-23T07:17:47.493Z,64.18
2018-06-23T07:18:47.449Z,64.08
2018-06-23T07:19:47.466Z,63.79
2018-06-23T07:20:47.516Z,64.18
2018-06-23T07:21:47.478Z,63.98
2018-06-23T07:22:47.450Z,64.18
2018-06-23T07:23:47.660Z,63.5
2018-06-23T07:24:47.445Z,63.7
2018-06-23T07:25:47.462Z,63.6
2018-06-23T07:26:47.579Z,63.5
2018-06-23T07:27:47.477Z,63.6
2018-06-23T07:28:47.437Z,62.54
2018-06-23T07:29:47.436Z,62.34
2018-06-23T07:30:47.508Z,62.05
2018-06-23T07:31:47.488Z,62.44
2018-06-23T07:32:47.442Z,62.05
2018-06-23T07:33:47.440Z,62.05
2018-06-23T07:34:47.621Z,61.96
2018-06-23T07:35:47.438Z,61.28
2018-06-23T07:36:47.515Z,62.25
2018-06-23T07:37:47.479Z,62.05
2018-06-23T07:38:47.509Z,62.05
2018-06-23T07:39:47.449Z,62.34
2018-06-23T07:40:47.504Z,62.63
2018-06-23T07:41:47.517Z,62.34
2018-06-23T07:42:47.475Z,62.34
2018-06-23T07:43:47.480Z,63.12
2018-06-23T07:44:47.464Z,62.44
2018-06-23T07:45:47.477Z,63.02
2018-06-23T07:46:47.587Z,62.82
2018-06-23T07:47:47.462Z,62.92
2018-06-23T07:48:47.542Z,62.63
2018-06-23T07:49:47.489Z,62.63
2018-06-23T07:50:47.521Z,62.63
2018-06-23T07:51:47.503Z,62.63
2018-06-23T07:52:47.517Z,62.73
2018-06-23T07:53:48.182Z,62.73
2018-06-23T07:54:47.580Z,62.82
2018-06-23T07:55:47.487Z,62.73
2018-06-23T07:56:47.484Z,63.12
2018-06-23T07:57:47.506Z,62.92
2018-06-23T07:58:47.541Z,62.44
2018-06-23T07:59:48.297Z,62.05
2018-06-23T08:00:47.817Z,62.34
2018-06-23T08:01:47.553Z,62.15
2018-06-23T08:02:47.576Z,61.86
2018-06-23T08:03:47.487Z,62.34
2018-06-23T08:04:47.591Z,62.05
2018-06-23T08:05:47.503Z,60.99
2018-06-23T08:06:47.505Z,60.03
2018-06-23T08:07:47.484Z,60.22
2018-06-23T08:08:47.564Z,60.41
2018-06-23T08:09:47.520Z,60.89
2018-06-23T08:10:47.559Z,60.8
2018-06-23T08:11:47.572Z,61.47
2018-06-23T08:12:47.550Z,61.19
2018-06-23T08:13:47.736Z,61.38
2018-06-23T08:14:47.525Z,60.99
2018-06-23T08:15:47.530Z,60.99
2018-06-23T08:16:47.514Z,60.99
2018-06-23T08:17:47.492Z,60.99
2018-06-23T08:18:47.575Z,60.89
2018-06-23T08:19:47.533Z,61.28
2018-06-23T08:20:47.695Z,61.19
2018-06-23T08:21:47.619Z,61.28
2018-06-23T08:22:47.614Z,61.38
2018-06-23T08:23:47.679Z,61.28
2018-06-23T08:24:47.568Z,61.38
2018-06-23T08:25:47.547Z,61.47
2018-06-23T08:26:47.591Z,61.28
2018-06-23T08:27:47.570Z,61.09
2018-06-23T08:28:47.646Z,60.8
2018-06-23T08:29:47.530Z,61.57
2018-06-23T08:30:47.606Z,59.83
2018-06-23T08:31:47.620Z,59.71
2018-06-23T08:32:47.554Z,60.48
2018-06-23T08:33:47.567Z,60.86
2018-06-23T08:34:47.569Z,60.96
2018-06-23T08:35:47.589Z,61.38
2018-06-23T08:36:47.580Z,61.25
2018-06-23T08:37:47.617Z,61.19
2018-06-23T08:38:47.584Z,61.44
2018-06-23T08:39:47.572Z,61.47
2018-06-23T08:40:47.555Z,61.57
2018-06-23T08:41:47.637Z,60.8
2018-06-23T08:42:47.644Z,60.89
2018-06-23T08:43:47.782Z,61.06
2018-06-23T08:44:47.619Z,60.89
2018-06-23T08:45:47.625Z,60.89
2018-06-23T08:46:47.580Z,60.99
2018-06-23T08:47:47.600Z,61.06
2018-06-23T08:48:47.618Z,60.77
2018-06-23T08:49:47.625Z,61.06
2018-06-23T08:50:47.631Z,61.09
2018-06-23T08:51:47.611Z,60.86
2018-06-23T08:52:47.600Z,60.77
2018-06-23T08:53:47.599Z,60.8
2018-06-23T08:54:47.625Z,60.8
2018-06-23T08:55:47.622Z,60.89
2018-06-23T08:56:47.627Z,60.61
2018-06-23T08:57:47.599Z,60.71
2018-06-23T08:58:47.611Z,60.13
2018-06-23T08:59:47.620Z,60.1
2018-06-23T09:00:47.630Z,60.38
2018-06-23T09:01:47.678Z,60.89
2018-06-23T09:02:47.669Z,60.51
2018-06-23T09:03:47.619Z,60.61
2018-06-23T09:04:47.605Z,60.38
2018-06-23T09:05:47.652Z,60.96
2018-06-23T09:06:47.649Z,60.51
2018-06-23T09:07:48.010Z,60.71
2018-06-23T09:08:47.652Z,60.89
2018-06-23T09:09:47.825Z,60.71
2018-06-23T09:10:47.752Z,60.51
2018-06-23T09:11:47.648Z,60.31
2018-06-23T09:12:47.626Z,60.22
2018-06-23T09:13:47.603Z,60.31
2018-06-23T09:14:47.660Z,58.87
2018-06-23T09:15:47.623Z,58.17
2018-06-23T09:16:48.289Z,58.17
2018-06-23T09:17:47.605Z,59.42
2018-06-23T09:18:47.638Z,60.1
2018-06-23T09:19:47.669Z,59.61
2018-06-23T09:20:47.649Z,58.45
2018-06-23T09:25:15.839Z,59.71
2018-06-23T09:26:15.817Z,60
2018-06-23T09:27:15.826Z,60
2018-06-23T09:28:16.011Z,59.9
2018-06-23T09:29:15.838Z,59.71
2018-06-23T09:30:15.875Z,59.9
2018-06-23T09:31:15.899Z,59.52
2018-06-23T09:32:15.864Z,59.42
2018-06-23T09:33:15.817Z,59.61
2018-06-23T09:34:15.817Z,59.45
2018-06-23T09:35:15.849Z,58.84
2018-06-23T09:36:15.805Z,59.13
2018-06-23T09:37:15.846Z,59.52
2018-06-23T09:38:15.824Z,60.28
2018-06-23T09:39:15.872Z,60.19
2018-06-23T09:40:15.885Z,59.52
2018-06-23T09:41:15.872Z,59.74
2018-06-23T09:42:15.873Z,59.9
2018-06-23T09:43:15.891Z,59.42
2018-06-23T09:44:15.833Z,59.71
2018-06-23T09:45:15.889Z,59.71
2018-06-23T09:46:16.131Z,59.74
2018-06-23T09:47:15.831Z,59.42
2018-06-23T09:48:15.838Z,59.8
2018-06-23T09:49:16.170Z,59.71
2018-06-23T09:50:15.853Z,59.52
2018-06-23T09:51:15.961Z,59.42
2018-06-23T09:52:15.859Z,59.45
2018-06-23T09:53:15.875Z,59.52
2018-06-23T09:54:15.951Z,59.03
2018-06-23T09:55:15.829Z,58.55
2018-06-23T09:56:15.910Z,58.26
2018-06-23T09:57:16.392Z,58.94
2018-06-23T09:58:16.004Z,59.23
2018-06-23T09:59:16.011Z,59.16
2018-06-23T10:00:15.942Z,59.13
2018-06-23T10:01:15.899Z,59.32
2018-06-23T10:02:15.863Z,59.23
2018-06-23T10:03:15.963Z,59.45
2018-06-23T10:04:15.925Z,59.25
2018-06-23T10:05:15.868Z,59.13
2018-06-23T10:06:15.877Z,59.23
2018-06-23T10:07:15.896Z,59.32
2018-06-23T10:08:15.890Z,59.03
2018-06-23T10:09:15.876Z,59.35
2018-06-23T10:10:15.900Z,59.13
2018-06-23T10:12:34.834Z,56.52
2018-06-23T10:13:34.735Z,57.87
2018-06-23T10:14:34.755Z,58.55
2018-06-23T10:15:34.824Z,58.45
2018-06-23T10:16:34.889Z,59.03
2018-06-23T10:21:51.587Z,59.03
2018-06-23T10:22:03.109Z,58.75
2018-06-23T10:23:03.032Z,59.03
2018-06-23T10:24:03.064Z,58.84
2018-06-23T10:25:03.053Z,58.55
2018-06-23T10:26:03.082Z,57.97
2018-06-23T10:27:03.090Z,58.19
2018-06-23T10:28:03.090Z,58.45
2018-06-23T10:29:03.176Z,58.29
2018-06-23T10:30:03.104Z,58.26
2018-06-23T10:31:03.157Z,58.55
2018-06-23T10:32:03.119Z,58.75
2018-06-23T10:33:03.071Z,59.06
2018-06-23T10:34:03.057Z,58.55
2018-06-23T10:35:03.132Z,58.65
2018-06-23T10:36:03.068Z,59.03
2018-06-23T10:37:03.094Z,58.77
2018-06-23T10:38:03.153Z,58.29
2018-06-23T10:39:03.107Z,57.68
2018-06-23T10:40:03.244Z,58.07
2018-06-23T10:41:03.131Z,58.39
2018-06-23T10:42:03.167Z,58.65
2018-06-23T10:43:03.110Z,58.65
2018-06-23T10:44:03.151Z,58.77
2018-06-23T10:45:03.151Z,58.65
2018-06-23T10:46:03.128Z,58.45
2018-06-23T10:47:03.089Z,57.97
2018-06-23T10:48:03.123Z,58.39
2018-06-23T10:49:03.149Z,58.39
2018-06-23T10:50:03.135Z,57.9
2018-06-23T10:51:03.185Z,58.07
2018-06-23T10:52:03.148Z,58.29
2018-06-23T10:53:03.200Z,58.29
2018-06-23T10:54:03.130Z,58.07
2018-06-23T10:55:03.147Z,58.19
2018-06-23T10:56:03.129Z,57.97
2018-06-23T10:57:03.148Z,58.29
2018-06-23T10:58:07.021Z,58.26
2018-06-23T10:59:03.138Z,58.55
2018-06-23T11:00:03.158Z,58.07
2018-06-23T11:01:03.136Z,58
2018-06-23T11:02:03.129Z,58.1
2018-06-23T11:03:03.145Z,58.39
2018-06-23T11:04:03.179Z,58
2018-06-23T11:05:03.201Z,57.97
2018-06-23T11:06:03.144Z,58
2018-06-23T11:07:03.192Z,58
2018-06-23T11:08:03.157Z,58.1
2018-06-23T11:09:03.161Z,58
2018-06-23T11:10:03.166Z,58.17
2018-06-23T11:11:03.168Z,58.1
2018-06-23T11:12:03.126Z,58.17
2018-06-23T11:13:03.155Z,57.97
2018-06-23T11:14:03.141Z,58.17
2018-06-23T11:15:03.205Z,57.97
2018-06-23T11:16:03.156Z,58.17
2018-06-23T11:17:03.202Z,58.45
2018-06-23T11:18:03.172Z,58.36
2018-06-23T11:19:03.209Z,58.19
2018-06-23T11:20:03.169Z,58.65
2018-06-23T11:21:03.151Z,58.94
2018-06-23T11:22:03.159Z,59.64
2018-06-23T11:23:03.171Z,59.64
2018-06-23T11:24:03.195Z,59.64
2018-06-23T11:25:03.223Z,60.03
2018-06-23T11:26:03.185Z,59.83
2018-06-23T11:30:31.525Z,59.55
2018-06-23T11:31:31.405Z,59.45
2018-06-23T11:32:31.396Z,59.45
2018-06-23T11:33:31.456Z,59.64
2018-06-23T11:34:31.425Z,59.16
2018-06-23T11:35:31.428Z,59.83
2018-06-23T11:36:31.413Z,59.74
2018-06-23T11:37:31.388Z,59.74
2018-06-23T11:38:31.438Z,59.55
2018-06-23T11:39:31.404Z,59.55
2018-06-23T11:40:31.400Z,60.03
2018-06-23T11:41:31.450Z,59.64
2018-06-23T11:42:31.474Z,59.64
2018-06-23T11:43:31.440Z,59.64
2018-06-23T11:44:31.418Z,59.83
2018-06-23T11:45:31.406Z,59.64
2018-06-23T11:46:31.476Z,59.93
2018-06-23T11:47:31.433Z,58
2018-06-23T11:48:31.473Z,57.59
2018-06-23T11:49:31.402Z,57.97
2018-06-23T11:50:31.435Z,58.58
2018-06-23T11:51:31.443Z,58.97
2018-06-23T11:52:31.624Z,59.35
2018-06-23T11:53:31.474Z,59.55
2018-06-23T11:54:31.450Z,58.68
2018-06-23T11:55:31.442Z,59.06
2018-06-23T11:56:31.461Z,59.45
2018-06-23T11:57:31.498Z,58.39
2018-06-23T11:58:31.480Z,58.94
2018-06-23T11:59:31.482Z,58.97
2018-06-23T12:00:31.418Z,59.25
2018-06-23T12:01:31.454Z,59.45
2018-06-23T12:02:31.455Z,59.45
2018-06-23T12:03:31.455Z,58.77
2018-06-23T12:04:31.451Z,59.16
2018-06-23T12:05:31.508Z,58.65
2018-06-23T12:06:31.460Z,58.29
2018-06-23T12:07:31.460Z,58.17
2018-06-23T12:08:31.555Z,58.1
2018-06-23T12:09:31.478Z,58.07
2018-06-23T12:10:31.481Z,58.65
2018-06-23T12:11:31.432Z,58.87
2018-06-23T12:12:31.492Z,59.45
2018-06-23T12:13:31.470Z,59.32
2018-06-23T12:14:31.510Z,59.74
2018-06-23T12:15:31.438Z,59.71
2018-06-23T12:16:31.471Z,59.74
2018-06-23T12:17:31.454Z,59.83
2018-06-23T12:18:31.514Z,60.22
2018-06-23T12:19:31.470Z,60.13
2018-06-23T12:20:31.517Z,60.99
2018-06-23T12:21:31.474Z,60.99
2018-06-23T12:22:31.492Z,61.38
2018-06-23T12:23:31.538Z,61.19
2018-06-23T12:24:31.464Z,61.28
2018-06-23T12:25:31.555Z,60.8
2018-06-23T12:26:31.536Z,60.89
2018-06-23T12:27:31.466Z,60.89
2018-06-23T12:28:31.505Z,61.19
2018-06-23T12:29:31.515Z,61.09
2018-06-23T12:30:31.601Z,60.8
2018-06-23T12:31:31.494Z,61.09
2018-06-23T12:32:31.512Z,60.8
2018-06-23T12:33:31.575Z,60.83
2018-06-23T12:34:31.611Z,60.89
2018-06-23T12:35:31.618Z,60.71
2018-06-23T12:36:31.508Z,61.47
2018-06-23T12:37:31.512Z,61.38
2018-06-23T12:38:41.596Z,61.28
2018-06-23T12:39:31.522Z,61.8
2018-06-23T12:40:31.521Z,62.28
2018-06-23T12:41:31.573Z,61.51
2018-06-23T12:42:31.496Z,59.58
2018-06-23T12:47:00.293Z,59.64
2018-06-23T12:48:00.103Z,60.41
2018-06-23T12:49:00.042Z,60.61
2018-06-23T12:50:00.100Z,60.99
2018-06-23T12:51:00.039Z,60.89
2018-06-23T12:52:00.052Z,59.64
2018-06-23T12:53:00.128Z,60.41
2018-06-23T12:54:00.133Z,60.22
2018-06-23T12:55:00.064Z,60.13
2018-06-23T12:56:00.063Z,60.61
2018-06-23T12:57:00.044Z,60.71
2018-06-23T12:58:00.061Z,59.83
2018-06-23T12:59:00.111Z,60.71
2018-06-23T13:00:00.074Z,60.89
2018-06-23T13:01:00.138Z,60.8
2018-06-23T13:02:00.103Z,60.8
2018-06-23T13:03:00.066Z,60.8
2018-06-23T13:04:00.140Z,60.99
2018-06-23T13:05:00.123Z,60.89
2018-06-23T13:06:00.088Z,60.89
2018-06-23T13:07:00.110Z,60.89
2018-06-23T13:08:00.115Z,60.61
2018-06-23T13:09:00.096Z,60.8
2018-06-23T13:10:00.157Z,60.99
2018-06-23T13:11:00.110Z,60.51
2018-06-23T13:12:00.119Z,60.41
2018-06-23T13:13:00.152Z,60.99
2018-06-23T13:14:00.116Z,60.13
2018-06-23T13:15:00.128Z,60.13
2018-06-23T13:16:00.117Z,59.45
2018-06-23T13:17:00.128Z,60.03
2018-06-23T13:18:00.091Z,60.22
2018-06-23T13:19:00.115Z,60.03
2018-06-23T13:20:00.139Z,60.89
2018-06-23T13:21:00.098Z,60.71
2018-06-23T13:22:00.152Z,59.93
2018-06-23T13:23:00.120Z,59.45
2018-06-23T13:24:00.142Z,59.9
2018-06-23T13:25:00.156Z,60.22
2018-06-23T13:26:00.135Z,60.22
2018-06-23T13:27:00.162Z,60.61